sensor_id;sensor_type;location;lat;lon;timestamp;P1;durP1;ratioP1;P2;durP2;ratioP2
323;SDS011;149;51.094;17.002;2024-01-10T00:02:18;1.48;;;1.48;;
323;SDS011;149;51.094;17.002;2024-01-10T00:04:46;4.60;;;4.30;;
323;SDS011;149;51.094;17.002;2024-01-10T00:07:13;7.57;;;7.10;;
323;SDS011;149;51.094;17.002;2024-01-10T00:09:41;1.73;;;1.70;;
323;SDS011;149;51.094;17.002;2024-01-10T00:12:07;8.23;;;7.53;;
323;SDS011;149;51.094;17.002;2024-01-10T00:14:35;2.03;;;1.92;;
323;SDS011;149;51.094;17.002;2024-01-10T00:17:01;4.60;;;4.30;;
323;SDS011;149;51.094;17.002;2024-01-10T00:19:29;7.32;;;5.80;;
323;SDS011;149;51.094;17.002;2024-01-10T00:21:57;4.55;;;4.25;;
323;SDS011;149;51.094;17.002;2024-01-10T00:24:24;6.53;;;5.38;;
323;SDS011;149;51.094;17.002;2024-01-10T00:26:51;3.55;;;3.45;;
323;SDS011;149;51.094;17.002;2024-01-10T00:29:18;4.22;;;3.70;;
323;SDS011;149;51.094;17.002;2024-01-10T00:31:45;8.73;;;8.15;;
323;SDS011;149;51.094;17.002;2024-01-10T00:34:13;2.45;;;2.35;;
323;SDS011;149;51.094;17.002;2024-01-10T00:36:39;6.60;;;6.30;;
323;SDS011;149;51.094;17.002;2024-01-10T00:39:06;6.70;;;6.30;;
323;SDS011;149;51.094;17.002;2024-01-10T00:41:33;8.27;;;7.72;;
323;SDS011;149;51.094;17.002;2024-01-10T00:44:00;7.88;;;7.50;;
323;SDS011;149;51.094;17.002;2024-01-10T00:46:27;8.27;;;7.88;;
323;SDS011;149;51.094;17.002;2024-01-10T00:48:54;9.88;;;9.20;;
323;SDS011;149;51.094;17.002;2024-01-10T00:51:21;11.57;;;10.13;;
323;SDS011;149;51.094;17.002;2024-01-10T00:53:48;6.22;;;5.93;;
323;SDS011;149;51.094;17.002;2024-01-10T00:56:15;3.25;;;3.08;;
323;SDS011;149;51.094;17.002;2024-01-10T00:58:43;10.85;;;9.60;;
323;SDS011;149;51.094;17.002;2024-01-10T01:01:10;9.88;;;9.20;;
323;SDS011;149;51.094;17.002;2024-01-10T01:03:37;6.70;;;6.30;;
323;SDS011;149;51.094;17.002;2024-01-10T01:06:04;2.45;;;2.35;;
323;SDS011;149;51.094;17.002;2024-01-10T01:08:31;7.47;;;7.07;;
323;SDS011;149;51.094;17.002;2024-01-10T01:10:59;7.35;;;4.78;;
323;SDS011;149;51.094;17.002;2024-01-10T01:13:25;6.20;;;4.78;;
323;SDS011;149;51.094;17.002;2024-01-10T01:15:53;5.50;;;3.70;;
323;SDS011;149;51.094;17.002;2024-01-10T01:18:20;3.08;;;2.90;;
323;SDS011;149;51.094;17.002;2024-01-10T01:20:47;2.75;;;2.38;;
323;SDS011;149;51.094;17.002;2024-01-10T01:23:15;2.78;;;2.58;;
323;SDS011;149;51.094;17.002;2024-01-10T01:25:58;4.80;;;4.55;;
323;SDS011;149;51.094;17.002;2024-01-10T01:28:25;11.82;;;7.55;;
323;SDS011;149;51.094;17.002;2024-01-10T01:30:52;10.18;;;9.30;;
323;SDS011;149;51.094;17.002;2024-01-10T01:33:19;5.68;;;5.38;;
323;SDS011;149;51.094;17.002;2024-01-10T01:35:46;6.13;;;4.88;;
323;SDS011;149;51.094;17.002;2024-01-10T01:38:14;5.28;;;3.70;;
323;SDS011;149;51.094;17.002;2024-01-10T01:40:41;9.63;;;7.95;;
323;SDS011;149;51.094;17.002;2024-01-10T01:43:20;8.98;;;8.32;;
323;SDS011;149;51.094;17.002;2024-01-10T01:45:52;6.85;;;4.78;;
323;SDS011;149;51.094;17.002;2024-01-10T01:48:22;11.05;;;10.45;;
323;SDS011;149;51.094;17.002;2024-01-10T01:50:50;8.50;;;8.00;;
323;SDS011;149;51.094;17.002;2024-01-10T01:53:20;10.55;;;9.52;;
323;SDS011;149;51.094;17.002;2024-01-10T01:55:48;6.07;;;5.50;;
323;SDS011;149;51.094;17.002;2024-01-10T01:58:15;3.78;;;3.58;;
323;SDS011;149;51.094;17.002;2024-01-10T02:00:42;4.47;;;4.15;;
323;SDS011;149;51.094;17.002;2024-01-10T02:03:12;3.45;;;3.35;;
323;SDS011;149;51.094;17.002;2024-01-10T02:05:40;13.43;;;7.95;;
323;SDS011;149;51.094;17.002;2024-01-10T02:08:08;11.75;;;5.20;;
323;SDS011;149;51.094;17.002;2024-01-10T02:10:35;3.75;;;3.60;;
323;SDS011;149;51.094;17.002;2024-01-10T02:13:02;12.80;;;11.57;;
323;SDS011;149;51.094;17.002;2024-01-10T02:15:29;11.15;;;3.80;;
323;SDS011;149;51.094;17.002;2024-01-10T02:17:56;1.05;;;1.05;;
323;SDS011;149;51.094;17.002;2024-01-10T02:20:23;5.03;;;4.78;;
323;SDS011;149;51.094;17.002;2024-01-10T02:22:50;10.60;;;9.85;;
323;SDS011;149;51.094;17.002;2024-01-10T02:25:18;5.57;;;5.20;;
323;SDS011;149;51.094;17.002;2024-01-10T02:27:45;3.08;;;2.88;;
323;SDS011;149;51.094;17.002;2024-01-10T02:30:12;7.75;;;7.13;;
323;SDS011;149;51.094;17.002;2024-01-10T02:32:39;6.35;;;5.78;;
323;SDS011;149;51.094;17.002;2024-01-10T02:35:07;4.57;;;4.35;;
323;SDS011;149;51.094;17.002;2024-01-10T02:37:34;10.73;;;10.07;;
323;SDS011;149;51.094;17.002;2024-01-10T02:40:01;5.13;;;4.45;;
323;SDS011;149;51.094;17.002;2024-01-10T02:42:29;3.75;;;3.55;;
323;SDS011;149;51.094;17.002;2024-01-10T02:44:56;11.88;;;10.77;;
323;SDS011;149;51.094;17.002;2024-01-10T02:47:23;7.40;;;7.00;;
323;SDS011;149;51.094;17.002;2024-01-10T02:49:50;7.53;;;5.80;;
323;SDS011;149;51.094;17.002;2024-01-10T02:52:17;1.10;;;1.10;;
323;SDS011;149;51.094;17.002;2024-01-10T02:54:46;10.55;;;6.38;;
323;SDS011;149;51.094;17.002;2024-01-10T02:57:13;1.25;;;1.25;;
323;SDS011;149;51.094;17.002;2024-01-10T02:59:40;6.32;;;5.53;;
323;SDS011;149;51.094;17.002;2024-01-10T03:02:07;8.30;;;7.53;;
323;SDS011;149;51.094;17.002;2024-01-10T03:04:35;11.20;;;10.45;;
323;SDS011;149;51.094;17.002;2024-01-10T03:07:02;8.27;;;7.57;;
323;SDS011;149;51.094;17.002;2024-01-10T03:09:29;11.43;;;10.52;;
323;SDS011;149;51.094;17.002;2024-01-10T03:11:56;3.47;;;3.30;;
323;SDS011;149;51.094;17.002;2024-01-10T03:14:23;9.55;;;6.93;;
323;SDS011;149;51.094;17.002;2024-01-10T03:16:50;3.95;;;3.78;;
323;SDS011;149;51.094;17.002;2024-01-10T03:19:17;4.95;;;4.72;;
323;SDS011;149;51.094;17.002;2024-01-10T03:21:44;2.25;;;2.15;;
323;SDS011;149;51.094;17.002;2024-01-10T03:24:11;13.25;;;12.15;;
323;SDS011;149;51.094;17.002;2024-01-10T03:26:38;8.40;;;7.80;;
323;SDS011;149;51.094;17.002;2024-01-10T03:29:05;9.70;;;9.00;;
323;SDS011;149;51.094;17.002;2024-01-10T03:31:32;4.85;;;4.55;;
323;SDS011;149;51.094;17.002;2024-01-10T03:33:59;8.63;;;8.02;;
323;SDS011;149;51.094;17.002;2024-01-10T03:36:26;5.97;;;5.57;;
323;SDS011;149;51.094;17.002;2024-01-10T03:38:53;4.00;;;3.85;;
323;SDS011;149;51.094;17.002;2024-01-10T03:41:20;7.25;;;6.65;;
323;SDS011;149;51.094;17.002;2024-01-10T03:43:48;8.63;;;8.05;;
323;SDS011;149;51.094;17.002;2024-01-10T03:46:15;5.30;;;5.00;;
323;SDS011;149;51.094;17.002;2024-01-10T03:48:42;3.83;;;3.72;;
323;SDS011;149;51.094;17.002;2024-01-10T03:54:12;3.58;;;3.38;;
323;SDS011;149;51.094;17.002;2024-01-10T03:56:39;4.10;;;3.70;;
323;SDS011;149;51.094;17.002;2024-01-10T03:59:07;6.50;;;5.70;;
323;SDS011;149;51.094;17.002;2024-01-10T04:01:33;2.90;;;2.58;;
323;SDS011;149;51.094;17.002;2024-01-10T04:04:02;7.53;;;7.15;;
323;SDS011;149;51.094;17.002;2024-01-10T04:06:29;4.28;;;3.97;;
323;SDS011;149;51.094;17.002;2024-01-10T04:08:56;7.32;;;6.78;;
323;SDS011;149;51.094;17.002;2024-01-10T04:11:23;9.57;;;7.80;;
323;SDS011;149;51.094;17.002;2024-01-10T04:13:50;7.72;;;7.22;;
323;SDS011;149;51.094;17.002;2024-01-10T04:16:17;5.32;;;5.13;;
323;SDS011;149;51.094;17.002;2024-01-10T04:18:44;4.13;;;3.83;;
323;SDS011;149;51.094;17.002;2024-01-10T04:21:11;4.00;;;3.78;;
323;SDS011;149;51.094;17.002;2024-01-10T04:23:38;9.60;;;8.95;;
323;SDS011;149;51.094;17.002;2024-01-10T04:26:06;1.83;;;1.83;;
323;SDS011;149;51.094;17.002;2024-01-10T04:28:32;13.55;;;12.32;;
323;SDS011;149;51.094;17.002;2024-01-10T04:31:00;5.80;;;5.50;;
323;SDS011;149;51.094;17.002;2024-01-10T04:33:27;5.82;;;5.30;;
323;SDS011;149;51.094;17.002;2024-01-10T04:35:54;1.20;;;1.20;;
323;SDS011;149;51.094;17.002;2024-01-10T04:38:21;4.68;;;4.35;;
323;SDS011;149;51.094;17.002;2024-01-10T04:40:48;2.88;;;2.78;;
323;SDS011;149;51.094;17.002;2024-01-10T04:43:15;10.02;;;9.50;;
323;SDS011;149;51.094;17.002;2024-01-10T04:45:42;11.60;;;10.60;;
323;SDS011;149;51.094;17.002;2024-01-10T04:48:09;4.40;;;4.20;;
323;SDS011;149;51.094;17.002;2024-01-10T04:50:38;7.07;;;6.47;;
323;SDS011;149;51.094;17.002;2024-01-10T04:53:05;4.97;;;4.75;;
323;SDS011;149;51.094;17.002;2024-01-10T04:55:32;11.82;;;6.43;;
323;SDS011;149;51.094;17.002;2024-01-10T04:57:59;5.78;;;5.38;;
323;SDS011;149;51.094;17.002;2024-01-10T05:00:27;2.88;;;2.47;;
323;SDS011;149;51.094;17.002;2024-01-10T05:02:54;10.55;;;7.00;;
323;SDS011;149;51.094;17.002;2024-01-10T05:05:21;6.72;;;6.38;;
323;SDS011;149;51.094;17.002;2024-01-10T05:07:50;10.40;;;9.80;;
323;SDS011;149;51.094;17.002;2024-01-10T05:10:18;5.35;;;5.07;;
323;SDS011;149;51.094;17.002;2024-01-10T05:12:45;4.47;;;4.10;;
323;SDS011;149;51.094;17.002;2024-01-10T05:15:12;6.30;;;5.85;;
323;SDS011;149;51.094;17.002;2024-01-10T05:17:39;7.88;;;7.35;;
323;SDS011;149;51.094;17.002;2024-01-10T05:20:06;8.27;;;7.57;;
323;SDS011;149;51.094;17.002;2024-01-10T05:22:34;7.43;;;6.05;;
323;SDS011;149;51.094;17.002;2024-01-10T05:25:02;13.13;;;8.68;;
323;SDS011;149;51.094;17.002;2024-01-10T05:27:30;6.32;;;5.93;;
323;SDS011;149;51.094;17.002;2024-01-10T05:29:59;4.70;;;4.40;;
323;SDS011;149;51.094;17.002;2024-01-10T05:32:26;2.45;;;2.35;;
323;SDS011;149;51.094;17.002;2024-01-10T05:34:55;8.27;;;7.65;;
323;SDS011;149;51.094;17.002;2024-01-10T05:37:23;2.75;;;2.65;;
323;SDS011;149;51.094;17.002;2024-01-10T05:39:49;6.40;;;5.80;;
323;SDS011;149;51.094;17.002;2024-01-10T05:42:17;9.48;;;8.32;;
323;SDS011;149;51.094;17.002;2024-01-10T05:44:44;3.15;;;3.05;;
323;SDS011;149;51.094;17.002;2024-01-10T05:47:13;6.82;;;6.43;;
323;SDS011;149;51.094;17.002;2024-01-10T05:49:40;5.22;;;4.90;;
323;SDS011;149;51.094;17.002;2024-01-10T05:52:07;6.70;;;6.32;;
323;SDS011;149;51.094;17.002;2024-01-10T05:54:34;3.45;;;3.25;;
323;SDS011;149;51.094;17.002;2024-01-10T05:57:01;3.70;;;3.60;;
323;SDS011;149;51.094;17.002;2024-01-10T05:59:28;7.25;;;6.75;;
323;SDS011;149;51.094;17.002;2024-01-10T06:01:57;2.95;;;2.85;;
323;SDS011;149;51.094;17.002;2024-01-10T06:04:25;8.10;;;7.53;;
323;SDS011;149;51.094;17.002;2024-01-10T06:06:54;11.75;;;10.60;;
323;SDS011;149;51.094;17.002;2024-01-10T06:09:21;4.65;;;4.40;;
323;SDS011;149;51.094;17.002;2024-01-10T06:11:48;8.45;;;7.93;;
323;SDS011;149;51.094;17.002;2024-01-10T06:14:15;8.40;;;7.80;;
323;SDS011;149;51.094;17.002;2024-01-10T06:16:43;6.32;;;6.03;;
323;SDS011;149;51.094;17.002;2024-01-10T06:19:11;12.05;;;11.32;;
323;SDS011;149;51.094;17.002;2024-01-10T06:21:39;4.07;;;3.85;;
323;SDS011;149;51.094;17.002;2024-01-10T06:24:05;1.92;;;1.88;;
323;SDS011;149;51.094;17.002;2024-01-10T06:26:32;3.15;;;2.88;;
323;SDS011;149;51.094;17.002;2024-01-10T06:28:59;8.35;;;7.85;;
323;SDS011;149;51.094;17.002;2024-01-10T06:31:26;5.25;;;5.05;;
323;SDS011;149;51.094;17.002;2024-01-10T06:33:53;8.68;;;7.85;;
323;SDS011;149;51.094;17.002;2024-01-10T06:36:20;7.85;;;7.18;;
323;SDS011;149;51.094;17.002;2024-01-10T06:38:47;6.00;;;5.57;;
323;SDS011;149;51.094;17.002;2024-01-10T06:41:15;3.95;;;3.78;;
323;SDS011;149;51.094;17.002;2024-01-10T06:43:42;4.45;;;4.10;;
323;SDS011;149;51.094;17.002;2024-01-10T06:46:09;6.75;;;6.28;;
323;SDS011;149;51.094;17.002;2024-01-10T06:48:37;2.65;;;2.55;;
323;SDS011;149;51.094;17.002;2024-01-10T06:51:14;13.52;;;12.35;;
323;SDS011;149;51.094;17.002;2024-01-10T06:53:41;30.65;;;4.82;;
323;SDS011;149;51.094;17.002;2024-01-10T06:56:09;1.17;;;1.17;;
323;SDS011;149;51.094;17.002;2024-01-10T06:58:38;7.03;;;6.57;;
323;SDS011;149;51.094;17.002;2024-01-10T07:01:11;6.10;;;5.80;;
323;SDS011;149;51.094;17.002;2024-01-10T07:03:40;6.82;;;6.32;;
323;SDS011;149;51.094;17.002;2024-01-10T07:06:08;11.48;;;10.70;;
323;SDS011;149;51.094;17.002;2024-01-10T07:08:35;2.97;;;2.88;;
323;SDS011;149;51.094;17.002;2024-01-10T07:11:02;3.55;;;2.38;;
323;SDS011;149;51.094;17.002;2024-01-10T07:13:29;8.02;;;7.47;;
323;SDS011;149;51.094;17.002;2024-01-10T07:15:58;7.57;;;7.07;;
323;SDS011;149;51.094;17.002;2024-01-10T07:18:28;5.32;;;5.07;;
323;SDS011;149;51.094;17.002;2024-01-10T07:20:56;4.38;;;4.15;;
323;SDS011;149;51.094;17.002;2024-01-10T07:23:22;2.70;;;2.60;;
323;SDS011;149;51.094;17.002;2024-01-10T07:25:50;5.25;;;4.95;;
323;SDS011;149;51.094;17.002;2024-01-10T07:28:17;0.85;;;0.85;;
323;SDS011;149;51.094;17.002;2024-01-10T07:30:45;2.33;;;2.20;;
323;SDS011;149;51.094;17.002;2024-01-10T07:33:14;1.33;;;1.33;;
323;SDS011;149;51.094;17.002;2024-01-10T07:35:45;3.30;;;3.08;;
323;SDS011;149;51.094;17.002;2024-01-10T07:38:12;11.93;;;11.10;;
323;SDS011;149;51.094;17.002;2024-01-10T07:40:40;2.20;;;2.10;;
323;SDS011;149;51.094;17.002;2024-01-10T07:43:07;8.15;;;7.57;;
323;SDS011;149;51.094;17.002;2024-01-10T07:45:34;8.68;;;8.15;;
323;SDS011;149;51.094;17.002;2024-01-10T07:48:01;8.93;;;8.38;;
323;SDS011;149;51.094;17.002;2024-01-10T07:50:29;7.20;;;6.57;;
323;SDS011;149;51.094;17.002;2024-01-10T07:52:56;7.97;;;7.47;;
323;SDS011;149;51.094;17.002;2024-01-10T07:55:23;20.45;;;18.63;;
323;SDS011;149;51.094;17.002;2024-01-10T07:58:03;4.43;;;4.13;;
323;SDS011;149;51.094;17.002;2024-01-10T08:00:32;3.50;;;3.30;;
323;SDS011;149;51.094;17.002;2024-01-10T08:02:59;7.43;;;7.03;;
323;SDS011;149;51.094;17.002;2024-01-10T08:05:26;10.10;;;9.27;;
323;SDS011;149;51.094;17.002;2024-01-10T08:07:53;7.53;;;6.82;;
323;SDS011;149;51.094;17.002;2024-01-10T08:10:22;12.43;;;11.30;;
323;SDS011;149;51.094;17.002;2024-01-10T08:12:49;4.80;;;4.60;;
323;SDS011;149;51.094;17.002;2024-01-10T08:15:19;9.38;;;6.97;;
323;SDS011;149;51.094;17.002;2024-01-10T08:17:46;3.45;;;2.85;;
323;SDS011;149;51.094;17.002;2024-01-10T08:20:13;3.78;;;3.58;;
323;SDS011;149;51.094;17.002;2024-01-10T08:22:45;5.43;;;5.00;;
323;SDS011;149;51.094;17.002;2024-01-10T08:25:13;26.35;;;14.27;;
323;SDS011;149;51.094;17.002;2024-01-10T08:27:42;9.25;;;8.50;;
323;SDS011;149;51.094;17.002;2024-01-10T08:30:11;9.35;;;8.77;;
323;SDS011;149;51.094;17.002;2024-01-10T08:32:38;12.82;;;12.13;;
323;SDS011;149;51.094;17.002;2024-01-10T08:35:06;13.63;;;10.75;;
323;SDS011;149;51.094;17.002;2024-01-10T08:37:35;9.88;;;7.78;;
323;SDS011;149;51.094;17.002;2024-01-10T08:40:04;8.48;;;7.82;;
323;SDS011;149;51.094;17.002;2024-01-10T08:42:36;7.28;;;6.88;;
323;SDS011;149;51.094;17.002;2024-01-10T08:45:04;11.68;;;10.77;;
323;SDS011;149;51.094;17.002;2024-01-10T08:47:31;6.15;;;5.57;;
323;SDS011;149;51.094;17.002;2024-01-10T08:49:59;12.75;;;11.95;;
323;SDS011;149;51.094;17.002;2024-01-10T08:52:27;12.65;;;11.48;;
323;SDS011;149;51.094;17.002;2024-01-10T08:54:54;17.98;;;11.55;;
323;SDS011;149;51.094;17.002;2024-01-10T08:57:22;8.38;;;7.78;;
323;SDS011;149;51.094;17.002;2024-01-10T08:59:49;9.98;;;7.07;;
323;SDS011;149;51.094;17.002;2024-01-10T09:02:16;9.10;;;8.60;;
323;SDS011;149;51.094;17.002;2024-01-10T09:04:44;7.85;;;7.35;;
323;SDS011;149;51.094;17.002;2024-01-10T09:07:10;18.88;;;13.73;;
323;SDS011;149;51.094;17.002;2024-01-10T09:09:38;8.20;;;6.40;;
323;SDS011;149;51.094;17.002;2024-01-10T09:12:05;10.25;;;8.07;;
323;SDS011;149;51.094;17.002;2024-01-10T09:14:32;15.23;;;11.25;;
323;SDS011;149;51.094;17.002;2024-01-10T09:17:01;8.73;;;8.23;;
323;SDS011;149;51.094;17.002;2024-01-10T09:19:29;7.00;;;6.65;;
323;SDS011;149;51.094;17.002;2024-01-10T09:22:00;12.20;;;11.23;;
323;SDS011;149;51.094;17.002;2024-01-10T09:24:27;8.25;;;7.70;;
323;SDS011;149;51.094;17.002;2024-01-10T09:26:55;7.82;;;7.03;;
323;SDS011;149;51.094;17.002;2024-01-10T09:29:23;12.15;;;9.93;;
323;SDS011;149;51.094;17.002;2024-01-10T09:31:52;19.92;;;15.73;;
323;SDS011;149;51.094;17.002;2024-01-10T09:34:19;16.73;;;12.73;;
323;SDS011;149;51.094;17.002;2024-01-10T09:36:47;22.50;;;14.15;;
323;SDS011;149;51.094;17.002;2024-01-10T09:39:14;23.05;;;13.32;;
323;SDS011;149;51.094;17.002;2024-01-10T09:41:47;22.63;;;12.70;;
323;SDS011;149;51.094;17.002;2024-01-10T09:44:15;14.60;;;13.20;;
323;SDS011;149;51.094;17.002;2024-01-10T09:46:49;16.42;;;14.95;;
323;SDS011;149;51.094;17.002;2024-01-10T09:49:18;27.10;;;19.42;;
323;SDS011;149;51.094;17.002;2024-01-10T09:51:49;12.10;;;10.98;;
323;SDS011;149;51.094;17.002;2024-01-10T09:54:20;12.45;;;11.50;;
323;SDS011;149;51.094;17.002;2024-01-10T09:56:51;11.88;;;10.98;;
323;SDS011;149;51.094;17.002;2024-01-10T09:59:19;12.45;;;11.35;;
323;SDS011;149;51.094;17.002;2024-01-10T10:01:46;16.98;;;12.18;;
323;SDS011;149;51.094;17.002;2024-01-10T10:04:13;25.58;;;14.32;;
323;SDS011;149;51.094;17.002;2024-01-10T10:06:44;19.60;;;13.57;;
323;SDS011;149;51.094;17.002;2024-01-10T10:09:12;12.05;;;10.20;;
323;SDS011;149;51.094;17.002;2024-01-10T10:11:40;14.93;;;13.63;;
323;SDS011;149;51.094;17.002;2024-01-10T10:14:13;28.85;;;15.95;;
323;SDS011;149;51.094;17.002;2024-01-10T10:16:42;14.75;;;13.52;;
323;SDS011;149;51.094;17.002;2024-01-10T10:19:10;12.80;;;11.20;;
323;SDS011;149;51.094;17.002;2024-01-10T10:21:49;12.18;;;10.95;;
323;SDS011;149;51.094;17.002;2024-01-10T10:24:17;9.27;;;8.57;;
323;SDS011;149;51.094;17.002;2024-01-10T10:26:46;17.75;;;16.10;;
323;SDS011;149;51.094;17.002;2024-01-10T10:29:16;18.95;;;16.90;;
323;SDS011;149;51.094;17.002;2024-01-10T10:31:47;12.85;;;12.05;;
323;SDS011;149;51.094;17.002;2024-01-10T10:34:16;12.15;;;11.10;;
323;SDS011;149;51.094;17.002;2024-01-10T10:36:47;24.50;;;14.90;;
323;SDS011;149;51.094;17.002;2024-01-10T10:39:18;21.30;;;12.82;;
323;SDS011;149;51.094;17.002;2024-01-10T10:41:46;15.88;;;14.23;;
323;SDS011;149;51.094;17.002;2024-01-10T10:44:14;25.13;;;17.38;;
323;SDS011;149;51.094;17.002;2024-01-10T10:46:49;19.35;;;17.00;;
323;SDS011;149;51.094;17.002;2024-01-10T10:49:34;21.92;;;13.43;;
323;SDS011;149;51.094;17.002;2024-01-10T10:52:01;14.68;;;13.05;;
323;SDS011;149;51.094;17.002;2024-01-10T10:54:29;16.17;;;14.63;;
323;SDS011;149;51.094;17.002;2024-01-10T10:56:59;17.27;;;15.88;;
323;SDS011;149;51.094;17.002;2024-01-10T10:59:29;13.88;;;12.68;;
323;SDS011;149;51.094;17.002;2024-01-10T11:02:00;19.70;;;17.17;;
323;SDS011;149;51.094;17.002;2024-01-10T11:04:27;26.00;;;14.45;;
323;SDS011;149;51.094;17.002;2024-01-10T11:06:56;16.15;;;12.18;;
323;SDS011;149;51.094;17.002;2024-01-10T11:09:23;25.25;;;15.73;;
323;SDS011;149;51.094;17.002;2024-01-10T11:14:42;21.90;;;19.70;;
323;SDS011;149;51.094;17.002;2024-01-10T11:17:32;5.93;;;5.63;;
323;SDS011;149;51.094;17.002;2024-01-10T11:20:33;22.40;;;14.18;;
323;SDS011;149;51.094;17.002;2024-01-10T11:23:36;20.42;;;14.75;;
323;SDS011;149;51.094;17.002;2024-01-10T11:26:07;13.25;;;12.00;;
323;SDS011;149;51.094;17.002;2024-01-10T11:28:36;8.75;;;7.93;;
323;SDS011;149;51.094;17.002;2024-01-10T11:31:07;28.92;;;17.13;;
323;SDS011;149;51.094;17.002;2024-01-10T11:33:36;19.15;;;12.52;;
323;SDS011;149;51.094;17.002;2024-01-10T11:36:12;18.80;;;12.45;;
323;SDS011;149;51.094;17.002;2024-01-10T11:38:44;15.00;;;13.82;;
323;SDS011;149;51.094;17.002;2024-01-10T11:41:20;25.15;;;14.43;;
323;SDS011;149;51.094;17.002;2024-01-10T11:46:37;18.42;;;11.43;;
323;SDS011;149;51.094;17.002;2024-01-10T11:49:09;14.50;;;12.57;;
323;SDS011;149;51.094;17.002;2024-01-10T11:51:36;9.30;;;8.00;;
323;SDS011;149;51.094;17.002;2024-01-10T11:54:03;19.00;;;17.17;;
323;SDS011;149;51.094;17.002;2024-01-10T11:56:38;11.68;;;10.75;;
323;SDS011;149;51.094;17.002;2024-01-10T11:59:13;25.15;;;16.00;;
323;SDS011;149;51.094;17.002;2024-01-10T12:01:42;14.98;;;8.32;;
323;SDS011;149;51.094;17.002;2024-01-10T12:04:09;25.30;;;11.50;;
323;SDS011;149;51.094;17.002;2024-01-10T12:06:48;19.20;;;17.42;;
323;SDS011;149;51.094;17.002;2024-01-10T12:09:16;13.60;;;12.43;;
323;SDS011;149;51.094;17.002;2024-01-10T12:11:44;14.68;;;13.20;;
323;SDS011;149;51.094;17.002;2024-01-10T12:14:11;19.40;;;13.05;;
323;SDS011;149;51.094;17.002;2024-01-10T12:16:38;21.17;;;12.38;;
323;SDS011;149;51.094;17.002;2024-01-10T12:19:06;34.40;;;13.48;;
323;SDS011;149;51.094;17.002;2024-01-10T12:21:33;12.10;;;10.80;;
323;SDS011;149;51.094;17.002;2024-01-10T12:24:02;15.38;;;13.82;;
323;SDS011;149;51.094;17.002;2024-01-10T12:26:32;23.77;;;13.25;;
323;SDS011;149;51.094;17.002;2024-01-10T12:29:00;16.52;;;13.90;;
323;SDS011;149;51.094;17.002;2024-01-10T12:31:27;42.85;;;21.00;;
323;SDS011;149;51.094;17.002;2024-01-10T12:33:55;18.80;;;13.88;;
323;SDS011;149;51.094;17.002;2024-01-10T12:36:22;16.40;;;13.38;;
323;SDS011;149;51.094;17.002;2024-01-10T12:38:50;23.95;;;14.90;;
323;SDS011;149;51.094;17.002;2024-01-10T12:41:17;26.98;;;19.88;;
323;SDS011;149;51.094;17.002;2024-01-10T12:43:55;25.88;;;13.65;;
323;SDS011;149;51.094;17.002;2024-01-10T12:46:22;20.30;;;15.98;;
323;SDS011;149;51.094;17.002;2024-01-10T12:49:06;14.60;;;12.93;;
323;SDS011;149;51.094;17.002;2024-01-10T12:51:35;19.35;;;17.35;;
323;SDS011;149;51.094;17.002;2024-01-10T12:54:04;17.05;;;12.10;;
323;SDS011;149;51.094;17.002;2024-01-10T12:56:31;32.25;;;14.20;;
323;SDS011;149;51.094;17.002;2024-01-10T12:59:00;29.05;;;19.50;;
323;SDS011;149;51.094;17.002;2024-01-10T13:01:28;30.17;;;16.65;;
323;SDS011;149;51.094;17.002;2024-01-10T13:03:54;23.33;;;17.38;;
323;SDS011;149;51.094;17.002;2024-01-10T13:06:22;13.15;;;11.35;;
323;SDS011;149;51.094;17.002;2024-01-10T13:08:50;40.50;;;16.85;;
323;SDS011;149;51.094;17.002;2024-01-10T13:11:18;31.15;;;16.25;;
323;SDS011;149;51.094;17.002;2024-01-10T13:13:47;15.27;;;11.50;;
323;SDS011;149;51.094;17.002;2024-01-10T13:16:18;20.23;;;18.17;;
323;SDS011;149;51.094;17.002;2024-01-10T13:18:45;14.45;;;13.15;;
323;SDS011;149;51.094;17.002;2024-01-10T13:21:12;18.52;;;16.85;;
323;SDS011;149;51.094;17.002;2024-01-10T13:23:40;14.07;;;12.88;;
323;SDS011;149;51.094;17.002;2024-01-10T13:26:08;21.60;;;18.98;;
323;SDS011;149;51.094;17.002;2024-01-10T13:28:37;23.63;;;17.35;;
323;SDS011;149;51.094;17.002;2024-01-10T13:31:05;13.55;;;12.45;;
323;SDS011;149;51.094;17.002;2024-01-10T13:33:32;22.90;;;16.02;;
323;SDS011;149;51.094;17.002;2024-01-10T13:36:12;21.35;;;12.35;;
323;SDS011;149;51.094;17.002;2024-01-10T13:38:39;36.83;;;14.68;;
323;SDS011;149;51.094;17.002;2024-01-10T13:41:07;21.40;;;13.88;;
323;SDS011;149;51.094;17.002;2024-01-10T13:43:36;17.90;;;16.10;;
323;SDS011;149;51.094;17.002;2024-01-10T13:46:04;25.92;;;20.40;;
323;SDS011;149;51.094;17.002;2024-01-10T13:48:35;57.63;;;16.10;;
323;SDS011;149;51.094;17.002;2024-01-10T13:51:02;30.83;;;16.95;;
323;SDS011;149;51.094;17.002;2024-01-10T13:53:29;16.95;;;12.98;;
323;SDS011;149;51.094;17.002;2024-01-10T13:55:57;23.15;;;15.48;;
323;SDS011;149;51.094;17.002;2024-01-10T13:58:27;16.27;;;14.57;;
323;SDS011;149;51.094;17.002;2024-01-10T14:00:58;18.35;;;14.32;;
323;SDS011;149;51.094;17.002;2024-01-10T14:03:30;25.80;;;16.13;;
323;SDS011;149;51.094;17.002;2024-01-10T14:06:10;27.33;;;16.63;;
323;SDS011;149;51.094;17.002;2024-01-10T14:08:38;26.67;;;15.85;;
323;SDS011;149;51.094;17.002;2024-01-10T14:11:14;27.83;;;18.15;;
323;SDS011;149;51.094;17.002;2024-01-10T14:13:42;32.22;;;20.23;;
323;SDS011;149;51.094;17.002;2024-01-10T14:16:11;25.23;;;16.30;;
323;SDS011;149;51.094;17.002;2024-01-10T14:18:40;37.63;;;17.40;;
323;SDS011;149;51.094;17.002;2024-01-10T14:21:08;23.50;;;15.15;;
323;SDS011;149;51.094;17.002;2024-01-10T14:23:36;27.17;;;16.38;;
323;SDS011;149;51.094;17.002;2024-01-10T14:26:08;18.63;;;16.98;;
323;SDS011;149;51.094;17.002;2024-01-10T14:28:35;32.17;;;20.08;;
323;SDS011;149;51.094;17.002;2024-01-10T14:31:02;18.98;;;16.92;;
323;SDS011;149;51.094;17.002;2024-01-10T14:33:47;38.00;;;15.93;;
323;SDS011;149;51.094;17.002;2024-01-10T14:36:15;26.20;;;20.00;;
323;SDS011;149;51.094;17.002;2024-01-10T14:38:44;22.98;;;17.25;;
323;SDS011;149;51.094;17.002;2024-01-10T14:41:13;39.40;;;17.95;;
323;SDS011;149;51.094;17.002;2024-01-10T14:43:40;27.60;;;14.77;;
323;SDS011;149;51.094;17.002;2024-01-10T14:46:09;23.17;;;16.00;;
323;SDS011;149;51.094;17.002;2024-01-10T14:48:37;14.65;;;13.50;;
323;SDS011;149;51.094;17.002;2024-01-10T14:51:08;16.67;;;15.07;;
323;SDS011;149;51.094;17.002;2024-01-10T14:53:45;20.85;;;18.50;;
323;SDS011;149;51.094;17.002;2024-01-10T14:56:14;15.80;;;14.65;;
323;SDS011;149;51.094;17.002;2024-01-10T14:58:41;21.55;;;15.40;;
323;SDS011;149;51.094;17.002;2024-01-10T15:01:09;20.67;;;17.90;;
323;SDS011;149;51.094;17.002;2024-01-10T15:03:36;17.33;;;14.35;;
323;SDS011;149;51.094;17.002;2024-01-10T15:06:12;21.58;;;19.48;;
323;SDS011;149;51.094;17.002;2024-01-10T15:08:43;17.63;;;15.75;;
323;SDS011;149;51.094;17.002;2024-01-10T15:11:13;19.70;;;14.82;;
323;SDS011;149;51.094;17.002;2024-01-10T15:13:42;15.70;;;11.18;;
323;SDS011;149;51.094;17.002;2024-01-10T15:16:15;17.00;;;15.77;;
323;SDS011;149;51.094;17.002;2024-01-10T15:18:46;30.33;;;21.60;;
323;SDS011;149;51.094;17.002;2024-01-10T15:21:17;26.55;;;19.80;;
323;SDS011;149;51.094;17.002;2024-01-10T15:23:47;18.55;;;15.80;;
323;SDS011;149;51.094;17.002;2024-01-10T15:26:15;19.10;;;15.40;;
323;SDS011;149;51.094;17.002;2024-01-10T15:28:47;14.98;;;12.07;;
323;SDS011;149;51.094;17.002;2024-01-10T15:31:19;17.52;;;15.95;;
323;SDS011;149;51.094;17.002;2024-01-10T15:33:48;27.88;;;18.33;;
323;SDS011;149;51.094;17.002;2024-01-10T15:36:15;15.63;;;14.43;;